Time;durP1;ratioP1;P1;durP2;ratioP2;P2;SDS_P1;SDS_P2;PMS_P1;PMS_P2;Temp;Humidity;BMP_temperature;BMP_pressure;BME280_temperature;BME280_humidity;BME280_pressure;Samples;Min_cycle;Max_cycle;Signal;HPM_P1;HPM_P2
2021/09/15 00:01:32;;;;;;;22.92;10.77;;;;;;;;;;5057936;28;20073;-57
2021/09/15 00:04:00;;;;;;;18.65;11.20;;;;;;;;;;5047476;28;20099;-58
2021/09/15 00:06:27;;;;;;;19.15;11.40;;;;;;;;;;5045465;28;20040;-58
2021/09/15 00:08:53;;;;;;;24.23;12.07;;;;;;;;;;5067145;28;20040;-58
2021/09/15 00:11:20;;;;;;;17.40;10.80;;;;;;;;;;5071791;28;20052;-58
2021/09/15 00:13:46;;;;;;;22.70;11.20;;;;;;;;;;5062241;28;20049;-57
2021/09/15 00:16:13;;;;;;;19.98;10.88;;;;;;;;;;5066441;28;20051;-57
2021/09/15 00:18:39;;;;;;;19.65;10.93;;;;;;;;;;5077878;28;20102;-57
2021/09/15 00:21:07;;;;;;;22.85;11.23;;;;;;;;;;5085463;28;20040;-57
2021/09/15 00:23:33;;;;;;;22.53;11.27;;;;;;;;;;5065342;28;20098;-57
2021/09/15 00:26:00;;;;;;;19.20;10.23;;;;;;;;;;5041805;28;20322;-58
2021/09/15 00:28:26;;;;;;;19.88;10.02;;;;;;;;;;5052907;28;20060;-58
2021/09/15 00:30:53;;;;;;;19.35;10.55;;;;;;;;;;5064899;28;20051;-58
2021/09/15 00:33:21;;;;;;;20.77;11.18;;;;;;;;;;5050832;28;20040;-58
2021/09/15 00:35:50;;;;;;;22.05;10.32;;;;;;;;;;5045990;28;20029;-57
2021/09/15 00:38:18;;;;;;;23.92;10.73;;;;;;;;;;5041512;28;20053;-58
2021/09/15 00:40:44;;;;;;;20.73;10.53;;;;;;;;;;5045192;28;20044;-57
2021/09/15 00:43:11;;;;;;;17.58;10.02;;;;;;;;;;5061866;28;20337;-58
2021/09/15 00:45:38;;;;;;;16.95;9.77;;;;;;;;;;5063152;28;20032;-58
2021/09/15 00:48:05;;;;;;;18.58;9.48;;;;;;;;;;5059540;28;20041;-57
2021/09/15 00:50:31;;;;;;;19.80;9.50;;;;;;;;;;5063417;28;20129;-57
2021/09/15 00:53:00;;;;;;;18.00;9.65;;;;;;;;;;5059109;28;20075;-58
2021/09/15 00:55:28;;;;;;;17.20;9.18;;;;;;;;;;5039883;28;20066;-56
2021/09/15 00:57:56;;;;;;;16.38;8.63;;;;;;;;;;5042983;28;20041;-57
2021/09/15 01:00:22;;;;;;;18.02;9.32;;;;;;;;;;5053294;28;20045;-58
2021/09/15 01:02:49;;;;;;;19.40;9.55;;;;;;;;;;5042981;28;20045;-57
2021/09/15 01:05:18;;;;;;;18.77;9.25;;;;;;;;;;5037865;28;20089;-58
2021/09/15 01:07:45;;;;;;;15.68;8.98;;;;;;;;;;5041199;28;20077;-56
2021/09/15 01:10:12;;;;;;;16.38;8.30;;;;;;;;;;5038903;28;20046;-57
2021/09/15 01:12:39;;;;;;;25.05;8.52;;;;;;;;;;5061167;28;20091;-57
2021/09/15 01:15:07;;;;;;;15.00;8.32;;;;;;;;;;5047594;28;20053;-57
2021/09/15 01:17:33;;;;;;;15.23;8.13;;;;;;;;;;5042834;28;20029;-57
2021/09/15 01:20:01;;;;;;;14.40;8.00;;;;;;;;;;5049012;28;20044;-56
2021/09/15 01:22:31;;;;;;;21.55;8.80;;;;;;;;;;5061629;28;20051;-55
2021/09/15 01:24:58;;;;;;;12.80;7.60;;;;;;;;;;5051905;28;20055;-57
2021/09/15 01:27:24;;;;;;;18.67;8.93;;;;;;;;;;5061579;28;20040;-56
2021/09/15 01:29:51;;;;;;;16.92;7.85;;;;;;;;;;5044751;28;20051;-57
2021/09/15 01:32:17;;;;;;;15.27;8.05;;;;;;;;;;5063016;28;20036;-58
2021/09/15 01:34:45;;;;;;;15.18;7.60;;;;;;;;;;5059659;28;20037;-57
2021/09/15 01:37:12;;;;;;;14.27;7.80;;;;;;;;;;5046370;28;20044;-57
2021/09/15 01:39:41;;;;;;;15.75;7.90;;;;;;;;;;5047182;28;20055;-57
2021/09/15 01:42:07;;;;;;;;;;;;;;;;;;5045046;28;20056;-57
2021/09/15 01:44:35;;;;;;;13.63;7.00;;;;;;;;;;5044423;28;20010;-57
2021/09/15 01:47:01;;;;;;;15.10;7.88;;;;;;;;;;5059492;28;20059;-58
2021/09/15 01:49:28;;;;;;;14.00;7.53;;;;;;;;;;5045703;28;20032;-58
2021/09/15 01:51:54;;;;;;;12.75;7.93;;;;;;;;;;5054005;28;20088;-56
2021/09/15 01:54:21;;;;;;;13.85;8.18;;;;;;;;;;5061360;28;20052;-57
2021/09/15 01:56:49;;;;;;;24.00;8.00;;;;;;;;;;5058748;28;20052;-57
2021/09/15 01:59:15;;;;;;;17.27;7.97;;;;;;;;;;5063113;28;20037;-57
2021/09/15 02:01:42;;;;;;;17.17;7.97;;;;;;;;;;5070918;28;20036;-56
2021/09/15 02:04:09;;;;;;;15.93;7.53;;;;;;;;;;5065788;28;20059;-57
2021/09/15 02:06:35;;;;;;;13.57;7.55;;;;;;;;;;5059119;28;20040;-57
2021/09/15 02:09:02;;;;;;;14.85;7.75;;;;;;;;;;5084186;28;20052;-57
2021/09/15 02:11:28;;;;;;;16.17;7.82;;;;;;;;;;5058325;28;20108;-58
2021/09/15 02:13:59;;;;;;;13.15;7.38;;;;;;;;;;5048367;28;20037;-56
2021/09/15 02:16:25;;;;;;;12.82;7.38;;;;;;;;;;5044313;28;20051;-57
2021/09/15 02:18:52;;;;;;;16.90;7.07;;;;;;;;;;5045718;28;20037;-57
2021/09/15 02:21:19;;;;;;;12.70;7.35;;;;;;;;;;5061466;28;20048;-58
2021/09/15 02:23:45;;;;;;;11.95;6.95;;;;;;;;;;5059555;28;20036;-57
2021/09/15 02:26:12;;;;;;;14.55;7.70;;;;;;;;;;5049985;28;20119;-56
2021/09/15 02:28:39;;;;;;;16.77;7.18;;;;;;;;;;5042281;28;20052;-58
2021/09/15 02:31:07;;;;;;;14.57;7.25;;;;;;;;;;5074219;28;20029;-57
2021/09/15 02:33:33;;;;;;;15.32;7.65;;;;;;;;;;5033673;28;20033;-56
2021/09/15 02:36:00;;;;;;;17.95;7.47;;;;;;;;;;5024746;28;20033;-57
2021/09/15 02:38:26;;;;;;;14.52;7.53;;;;;;;;;;5020266;28;20042;-58
2021/09/15 02:40:53;;;;;;;13.35;7.45;;;;;;;;;;5024574;28;20037;-57
2021/09/15 02:43:19;;;;;;;13.35;7.30;;;;;;;;;;5030724;28;20044;-57
2021/09/15 02:45:46;;;;;;;16.85;7.70;;;;;;;;;;5058339;28;20032;-57
2021/09/15 02:48:14;;;;;;;11.73;7.28;;;;;;;;;;5051575;28;20044;-56
2021/09/15 02:50:41;;;;;;;14.27;7.95;;;;;;;;;;5047627;28;20036;-57
2021/09/15 02:53:09;;;;;;;14.23;7.63;;;;;;;;;;5078041;28;20047;-57
2021/09/15 02:55:36;;;;;;;11.82;7.15;;;;;;;;;;5049618;28;20069;-57
2021/09/15 02:58:03;;;;;;;17.10;7.10;;;;;;;;;;5056321;28;20056;-57
2021/09/15 03:00:30;;;;;;;14.90;8.18;;;;;;;;;;5056902;28;20052;-56
2021/09/15 03:02:57;;;;;;;14.23;7.30;;;;;;;;;;5060074;28;20040;-57
2021/09/15 03:05:25;;;;;;;12.63;7.22;;;;;;;;;;5058272;28;20087;-56
2021/09/15 03:07:52;;;;;;;13.90;7.63;;;;;;;;;;5082137;28;20048;-57
2021/09/15 03:10:18;;;;;;;14.90;8.40;;;;;;;;;;5041304;28;20048;-54
2021/09/15 03:12:45;;;;;;;19.15;8.02;;;;;;;;;;5057567;28;20107;-57
2021/09/15 03:15:13;;;;;;;13.85;7.90;;;;;;;;;;5055401;28;20052;-56
2021/09/15 03:17:40;;;;;;;13.48;7.75;;;;;;;;;;5065458;28;20036;-56
2021/09/15 03:20:07;;;;;;;13.40;8.27;;;;;;;;;;5079236;28;20047;-55
2021/09/15 03:22:35;;;;;;;14.10;8.23;;;;;;;;;;5061998;28;20061;-56
2021/09/15 03:25:02;;;;;;;14.25;8.25;;;;;;;;;;5057516;28;20040;-55
2021/09/15 03:27:29;;;;;;;14.48;7.70;;;;;;;;;;5059861;28;20040;-56
2021/09/15 03:29:55;;;;;;;15.40;7.75;;;;;;;;;;5048493;28;20046;-56
2021/09/15 03:32:22;;;;;;;15.43;8.43;;;;;;;;;;5064790;28;20033;-56
2021/09/15 03:34:49;;;;;;;14.18;7.15;;;;;;;;;;5076035;28;20155;-56
2021/09/15 03:37:15;;;;;;;15.77;8.20;;;;;;;;;;5081906;28;20025;-55
2021/09/15 03:39:43;;;;;;;14.65;7.53;;;;;;;;;;5078733;28;20049;-56
2021/09/15 03:42:09;;;;;;;13.43;8.17;;;;;;;;;;5065005;28;20061;-56
2021/09/15 03:44:37;;;;;;;11.70;7.30;;;;;;;;;;5078412;28;20289;-55
2021/09/15 03:47:04;;;;;;;13.52;7.45;;;;;;;;;;5023020;28;20052;-56
2021/09/15 03:49:33;;;;;;;14.00;7.55;;;;;;;;;;5027903;28;20052;-56
2021/09/15 03:52:02;;;;;;;15.07;7.25;;;;;;;;;;5026595;28;20045;-56
2021/09/15 03:54:31;;;;;;;13.73;7.65;;;;;;;;;;5049575;28;20037;-58
2021/09/15 03:56:59;;;;;;;15.48;7.35;;;;;;;;;;5062365;28;20055;-56
2021/09/15 03:59:26;;;;;;;14.57;7.20;;;;;;;;;;5084398;28;20037;-55
2021/09/15 04:01:52;;;;;;;11.90;7.22;;;;;;;;;;5049630;28;20064;-56
2021/09/15 04:04:19;;;;;;;13.05;7.53;;;;;;;;;;5064481;28;20061;-53
2021/09/15 04:06:45;;;;;;;15.52;7.72;;;;;;;;;;5043357;28;20044;-56
2021/09/15 04:09:13;;;;;;;15.50;7.60;;;;;;;;;;5065345;28;20159;-56
2021/09/15 04:11:39;;;;;;;15.30;7.27;;;;;;;;;;5044142;28;20055;-56
2021/09/15 04:14:08;;;;;;;12.63;7.63;;;;;;;;;;5025763;28;20279;-55
2021/09/15 04:16:34;;;;;;;20.92;7.47;;;;;;;;;;5026079;28;20060;-54
2021/09/15 04:19:01;;;;;;;15.65;8.07;;;;;;;;;;5043722;28;20065;-56
2021/09/15 04:21:27;;;;;;;14.45;8.02;;;;;;;;;;5028253;28;20043;-56
2021/09/15 04:24:06;;;;;;;16.33;7.70;;;;;;;;;;5046113;28;20097;-56
2021/09/15 04:32:04;;;;;;;14.35;7.50;;;;;;;;;;5066813;28;20037;-55
2021/09/15 04:34:31;;;;;;;;;;;;;;;;;;5046520;28;20041;-56
2021/09/15 04:36:57;;;;;;;13.70;7.22;;;;;;;;;;5074470;28;19944;-56
2021/09/15 04:39:25;;;;;;;13.20;6.95;;;;;;;;;;5061679;28;20052;-56
2021/09/15 04:41:51;;;;;;;16.00;7.90;;;;;;;;;;5043914;28;20033;-55
2021/09/15 04:44:20;;;;;;;15.80;8.45;;;;;;;;;;5044593;28;20041;-56
2021/09/15 04:46:46;;;;;;;15.15;7.25;;;;;;;;;;5058254;28;20077;-55
2021/09/15 04:49:12;;;;;;;15.20;8.40;;;;;;;;;;5059201;28;20052;-56
2021/09/15 04:51:39;;;;;;;13.30;7.00;;;;;;;;;;5079497;28;20045;-56
2021/09/15 04:54:06;;;;;;;13.30;7.70;;;;;;;;;;5076762;28;20040;-56
2021/09/15 04:56:32;;;;;;;12.50;7.57;;;;;;;;;;5082993;28;20041;-56
2021/09/15 04:58:59;;;;;;;19.08;7.88;;;;;;;;;;5066391;28;20045;-55
2021/09/15 05:01:26;;;;;;;15.00;7.88;;;;;;;;;;5079490;28;20048;-56
2021/09/15 05:03:53;;;;;;;13.37;7.17;;;;;;;;;;5079485;28;20045;-56
2021/09/15 05:06:20;;;;;;;12.65;7.32;;;;;;;;;;5065990;28;20036;-55
2021/09/15 05:08:46;;;;;;;12.13;7.32;;;;;;;;;;5059651;28;20089;-55
2021/09/15 05:11:12;;;;;;;15.80;7.65;;;;;;;;;;5071987;28;20040;-56
2021/09/15 05:13:40;;;;;;;17.25;10.20;;;;;;;;;;5059125;28;20037;-56
2021/09/15 05:16:06;;;;;;;14.70;9.00;;;;;;;;;;5062529;28;20040;-56
2021/09/15 05:18:34;;;;;;;16.13;8.50;;;;;;;;;;5078591;28;20044;-55
2021/09/15 05:21:01;;;;;;;16.23;8.68;;;;;;;;;;5066270;28;20036;-57
2021/09/15 05:23:27;;;;;;;15.60;9.27;;;;;;;;;;5063465;28;20105;-57
2021/09/15 05:25:53;;;;;;;17.85;9.95;;;;;;;;;;5057843;28;20056;-54
2021/09/15 05:28:20;;;;;;;16.98;9.23;;;;;;;;;;5050274;28;20041;-56
2021/09/15 05:30:47;;;;;;;18.73;11.10;;;;;;;;;;5052673;28;20045;-56
2021/09/15 05:33:13;;;;;;;20.02;11.98;;;;;;;;;;5047204;28;20110;-56
2021/09/15 05:35:42;;;;;;;16.95;9.02;;;;;;;;;;5049767;28;20025;-53
2021/09/15 05:38:09;;;;;;;15.77;9.10;;;;;;;;;;5048649;28;20042;-55
2021/09/15 05:40:36;;;;;;;22.70;9.93;;;;;;;;;;5037741;28;20087;-56
2021/09/15 05:43:02;;;;;;;16.85;9.40;;;;;;;;;;5006273;28;20054;-55
2021/09/15 05:45:29;;;;;;;22.85;11.90;;;;;;;;;;5035707;28;20037;-56
2021/09/15 05:47:55;;;;;;;19.80;10.25;;;;;;;;;;5020527;28;20049;-57
2021/09/15 05:50:22;;;;;;;22.55;10.88;;;;;;;;;;5016429;28;20049;-58
2021/09/15 05:52:50;;;;;;;21.50;11.48;;;;;;;;;;5036061;28;20054;-55
2021/09/15 05:55:17;;;;;;;19.88;10.00;;;;;;;;;;5017927;28;20025;-56
2021/09/15 05:57:43;;;;;;;15.60;9.52;;;;;;;;;;5033189;28;20052;-57
2021/09/15 06:00:10;;;;;;;21.90;10.50;;;;;;;;;;5021179;28;20030;-55
2021/09/15 06:02:36;;;;;;;18.08;9.85;;;;;;;;;;5011545;28;20046;-54
2021/09/15 06:05:04;;;;;;;17.30;9.68;;;;;;;;;;5036302;28;20127;-57
2021/09/15 06:07:30;;;;;;;20.42;8.73;;;;;;;;;;5019425;28;20040;-56
2021/09/15 06:09:58;;;;;;;15.73;9.02;;;;;;;;;;5039529;28;20058;-56
2021/09/15 06:12:25;;;;;;;17.00;8.93;;;;;;;;;;5018608;28;20057;-56
2021/09/15 06:14:52;;;;;;;14.27;8.52;;;;;;;;;;5020467;28;20303;-56
2021/09/15 06:17:19;;;;;;;19.58;9.32;;;;;;;;;;5006918;28;20252;-56
2021/09/15 06:19:45;;;;;;;13.75;8.07;;;;;;;;;;5021568;28;20082;-56
2021/09/15 06:22:11;;;;;;;16.08;8.27;;;;;;;;;;5014785;28;20049;-57
2021/09/15 06:24:38;;;;;;;16.88;8.20;;;;;;;;;;5002640;28;20053;-57
2021/09/15 06:27:06;;;;;;;14.93;7.88;;;;;;;;;;5045164;28;20037;-56
2021/09/15 06:29:33;;;;;;;13.02;7.50;;;;;;;;;;5042199;28;20123;-57
2021/09/15 06:31:59;;;;;;;13.43;8.45;;;;;;;;;;5039848;28;20045;-57
2021/09/15 06:34:26;;;;;;;25.50;13.38;;;;;;;;;;5043491;28;20037;-57
2021/09/15 06:36:53;;;;;;;27.77;13.48;;;;;;;;;;5034116;28;20046;-55
2021/09/15 06:39:20;;;;;;;20.02;11.93;;;;;;;;;;5022505;28;20053;-56
2021/09/15 06:41:46;;;;;;;19.77;11.75;;;;;;;;;;5022869;28;20045;-56
2021/09/15 06:44:15;;;;;;;19.33;11.10;;;;;;;;;;5041938;28;20122;-57
2021/09/15 06:46:41;;;;;;;25.92;13.30;;;;;;;;;;5036789;28;20052;-55
2021/09/15 06:49:07;;;;;;;21.20;11.13;;;;;;;;;;5041126;28;20060;-56
2021/09/15 06:51:34;;;;;;;19.92;10.02;;;;;;;;;;5041413;28;20042;-56
2021/09/15 06:54:01;;;;;;;19.63;9.07;;;;;;;;;;5038752;28;20033;-56
2021/09/15 06:56:27;;;;;;;18.67;8.13;;;;;;;;;;5037489;28;20053;-55
2021/09/15 06:58:54;;;;;;;13.90;8.57;;;;;;;;;;5032045;28;20056;-55
2021/09/15 07:01:24;;;;;;;17.10;8.98;;;;;;;;;;5033048;28;20040;-57
2021/09/15 07:03:52;;;;;;;15.35;9.15;;;;;;;;;;5040347;28;20037;-57
2021/09/15 07:06:18;;;;;;;15.43;8.45;;;;;;;;;;5045704;28;20041;-55
2021/09/15 07:08:44;;;;;;;14.25;8.43;;;;;;;;;;5058341;28;20045;-57
2021/09/15 07:11:11;;;;;;;18.75;8.70;;;;;;;;;;5045073;28;20048;-56
2021/09/15 07:13:40;;;;;;;16.70;8.85;;;;;;;;;;5041602;28;20037;-56
2021/09/15 07:16:06;;;;;;;14.80;8.15;;;;;;;;;;5042270;28;20033;-56
2021/09/15 07:18:34;;;;;;;13.63;8.20;;;;;;;;;;5040255;28;20045;-57
2021/09/15 07:21:01;;;;;;;16.77;8.52;;;;;;;;;;5044396;28;20099;-57
2021/09/15 07:23:27;;;;;;;16.48;8.50;;;;;;;;;;5039995;28;20044;-56
2021/09/15 07:25:54;;;;;;;13.82;8.15;;;;;;;;;;5043407;28;20055;-57
2021/09/15 07:28:20;;;;;;;13.00;7.90;;;;;;;;;;5069296;28;20090;-56
2021/09/15 07:30:47;;;;;;;17.88;8.48;;;;;;;;;;5044975;28;20080;-55
2021/09/15 07:33:14;;;;;;;16.90;9.07;;;;;;;;;;5060234;28;20045;-57
2021/09/15 07:35:43;;;;;;;18.55;10.30;;;;;;;;;;5057994;28;20053;-57
2021/09/15 07:38:09;;;;;;;15.90;8.80;;;;;;;;;;5063472;28;20044;-57
2021/09/15 07:40:36;;;;;;;17.17;9.43;;;;;;;;;;5075259;28;20041;-55
2021/09/15 07:43:03;;;;;;;15.27;9.38;;;;;;;;;;5079050;28;20088;-57
2021/09/15 07:45:30;;;;;;;15.88;9.70;;;;;;;;;;5061670;28;20041;-55
2021/09/15 07:47:56;;;;;;;23.15;10.50;;;;;;;;;;5080136;28;20036;-56
2021/09/15 07:50:23;;;;;;;17.38;10.23;;;;;;;;;;5060106;28;20052;-56
2021/09/15 07:52:51;;;;;;;14.20;8.85;;;;;;;;;;5064056;28;20090;-57
2021/09/15 07:55:19;;;;;;;15.90;9.45;;;;;;;;;;5057832;28;20077;-56
2021/09/15 07:57:47;;;;;;;16.67;9.75;;;;;;;;;;5079318;28;20051;-55
2021/09/15 08:00:14;;;;;;;17.95;10.13;;;;;;;;;;5076877;28;20049;-55
2021/09/15 08:02:40;;;;;;;17.90;10.20;;;;;;;;;;5065157;28;20048;-55
2021/09/15 08:05:07;;;;;;;21.95;11.18;;;;;;;;;;5059309;28;20121;-56
2021/09/15 08:07:34;;;;;;;20.85;10.65;;;;;;;;;;5062554;28;20075;-57
2021/09/15 08:10:02;;;;;;;23.90;11.15;;;;;;;;;;5077480;28;20066;-54
2021/09/15 08:12:28;;;;;;;23.07;11.80;;;;;;;;;;5062631;28;20118;-57
2021/09/15 08:14:56;;;;;;;21.35;12.00;;;;;;;;;;5063808;28;20048;-55
2021/09/15 08:17:22;;;;;;;24.33;11.30;;;;;;;;;;5057854;28;20049;-56
2021/09/15 08:19:48;;;;;;;26.08;12.43;;;;;;;;;;5063827;28;20187;-56
2021/09/15 08:22:17;;;;;;;20.95;12.77;;;;;;;;;;5060825;28;20056;-56
2021/09/15 08:24:48;;;;;;;27.02;12.95;;;;;;;;;;5063305;28;20052;-56
2021/09/15 08:27:16;;;;;;;29.80;14.25;;;;;;;;;;5060838;28;20144;-57
2021/09/15 08:29:42;;;;;;;28.13;16.03;;;;;;;;;;5061943;28;20041;-57
2021/09/15 08:32:09;;;;;;;39.47;19.20;;;;;;;;;;5059771;28;20049;-56
2021/09/15 08:34:37;;;;;;;28.67;15.88;;;;;;;;;;5063016;28;20056;-55
2021/09/15 08:37:03;;;;;;;33.88;18.63;;;;;;;;;;5057096;28;20138;-55
2021/09/15 08:39:30;;;;;;;36.13;18.55;;;;;;;;;;5061540;28;20055;-54
2021/09/15 08:41:56;;;;;;;36.33;19.30;;;;;;;;;;5058829;28;20155;-57
2021/09/15 08:44:26;;;;;;;37.92;18.85;;;;;;;;;;5063510;28;20045;-53
2021/09/15 08:46:53;;;;;;;34.63;19.58;;;;;;;;;;5059534;28;20049;-56
2021/09/15 08:49:20;;;;;;;41.55;18.85;;;;;;;;;;5062845;28;20044;-54
2021/09/15 08:51:46;;;;;;;38.97;20.15;;;;;;;;;;5060187;28;20049;-57
2021/09/15 08:54:14;;;;;;;39.28;21.15;;;;;;;;;;5063472;28;20045;-57
2021/09/15 08:56:41;;;;;;;40.35;21.88;;;;;;;;;;5060411;28;20045;-56
2021/09/15 08:59:07;;;;;;;45.70;22.60;;;;;;;;;;5057503;28;20061;-56
2021/09/15 09:01:35;;;;;;;45.30;22.77;;;;;;;;;;5036491;28;20049;-54
2021/09/15 09:04:04;;;;;;;41.87;23.20;;;;;;;;;;5047564;28;20044;-56
2021/09/15 09:06:32;;;;;;;46.55;23.63;;;;;;;;;;5062485;28;20081;-56
2021/09/15 09:09:00;;;;;;;41.78;22.80;;;;;;;;;;5061447;28;20055;-54
2021/09/15 09:11:27;;;;;;;41.10;23.20;;;;;;;;;;5062296;28;20049;-57
2021/09/15 09:13:55;;;;;;;50.65;25.85;;;;;;;;;;5058605;28;20029;-55
2021/09/15 09:16:22;;;;;;;58.53;28.02;;;;;;;;;;5063323;28;20047;-58
2021/09/15 09:18:57;;;;;;;52.80;24.73;;;;;;;;;;5060721;28;20049;-56
2021/09/15 09:21:24;;;;;;;47.90;24.27;;;;;;;;;;5060960;28;20041;-56
2021/09/15 09:23:55;;;;;;;49.57;24.30;;;;;;;;;;5059511;28;20059;-57
2021/09/15 09:26:21;;;;;;;44.63;24.60;;;;;;;;;;5059442;28;20045;-56
2021/09/15 09:28:48;;;;;;;49.58;26.48;;;;;;;;;;5059329;28;20033;-56
2021/09/15 09:31:14;;;;;;;52.38;27.17;;;;;;;;;;5062256;28;20037;-56
2021/09/15 09:33:40;;;;;;;55.78;26.75;;;;;;;;;;5059171;28;20041;-57
2021/09/15 09:36:09;;;;;;;59.40;27.60;;;;;;;;;;5061325;28;20037;-56
2021/09/15 09:38:35;;;;;;;;;;;;;;;;;;5058448;28;20056;-56
2021/09/15 09:41:03;;;;;;;55.95;26.95;;;;;;;;;;5060738;28;19929;-57
2021/09/15 09:43:31;;;;;;;55.38;26.85;;;;;;;;;;5062748;28;20044;-55
2021/09/15 09:45:58;;;;;;;55.10;25.73;;;;;;;;;;5061400;28;20097;-57
2021/09/15 09:48:35;;;;;;;53.10;24.73;;;;;;;;;;5062674;28;20056;-55
2021/09/15 09:51:02;;;;;;;52.70;25.20;;;;;;;;;;5058917;28;20045;-57
2021/09/15 09:53:30;;;;;;;50.67;23.55;;;;;;;;;;5061448;28;20032;-57
2021/09/15 09:55:58;;;;;;;55.75;24.10;;;;;;;;;;5057262;28;20102;-58
2021/09/15 09:58:25;;;;;;;49.30;24.23;;;;;;;;;;5061795;28;20029;-59
2021/09/15 10:00:54;;;;;;;47.45;23.33;;;;;;;;;;5058492;28;20133;-56
2021/09/15 10:03:20;;;;;;;47.55;23.13;;;;;;;;;;5056221;28;20114;-57
2021/09/15 10:05:48;;;;;;;49.13;23.73;;;;;;;;;;5057462;28;20029;-59
2021/09/15 10:08:18;;;;;;;51.85;22.80;;;;;;;;;;5061211;28;20051;-59
2021/09/15 10:10:47;;;;;;;47.70;22.65;;;;;;;;;;5055381;28;20037;-59
2021/09/15 10:13:14;;;;;;;51.10;22.70;;;;;;;;;;5041049;28;20157;-58
2021/09/15 10:15:46;;;;;;;42.50;19.85;;;;;;;;;;5046816;28;20056;-59
2021/09/15 10:18:13;;;;;;;40.10;21.02;;;;;;;;;;5062752;28;20056;-59
2021/09/15 10:20:43;;;;;;;40.15;18.45;;;;;;;;;;5062728;28;20041;-59
2021/09/15 10:23:25;;;;;;;40.25;19.80;;;;;;;;;;5063660;28;20044;-59
2021/09/15 10:25:53;;;;;;;40.45;19.15;;;;;;;;;;5041887;28;20093;-59
2021/09/15 10:28:19;;;;;;;39.83;18.13;;;;;;;;;;5002021;28;20042;-59
2021/09/15 10:30:47;;;;;;;34.42;16.77;;;;;;;;;;4999430;28;20050;-59
2021/09/15 10:33:32;;;;;;;29.85;15.52;;;;;;;;;;5001724;28;20038;-59
2021/09/15 10:35:59;;;;;;;28.92;13.07;;;;;;;;;;5000881;28;20050;-59
2021/09/15 10:38:51;;;;;;;28.67;12.90;;;;;;;;;;5021904;28;20057;-59
2021/09/15 10:41:32;;;;;;;27.25;12.70;;;;;;;;;;5018002;28;20037;-58
2021/09/15 10:44:05;;;;;;;26.05;13.27;;;;;;;;;;5027841;28;20029;-59
2021/09/15 10:46:31;;;;;;;24.67;12.57;;;;;;;;;;5032800;28;20121;-59
2021/09/15 10:49:16;;;;;;;28.90;15.30;;;;;;;;;;5020465;28;20092;-59
2021/09/15 10:51:43;;;;;;;31.70;16.17;;;;;;;;;;5019664;28;20049;-59
2021/09/15 10:54:25;;;;;;;28.30;15.02;;;;;;;;;;5020251;28;20033;-59
2021/09/15 10:57:10;;;;;;;31.10;16.67;;;;;;;;;;5017972;28;20041;-59
2021/09/15 10:59:49;;;;;;;28.40;16.25;;;;;;;;;;5040450;28;20042;-59
2021/09/15 11:02:23;;;;;;;33.45;16.17;;;;;;;;;;5032175;28;20046;-60
2021/09/15 11:04:52;;;;;;;28.92;15.52;;;;;;;;;;5021612;28;20088;-59
2021/09/15 11:07:37;;;;;;;31.95;16.55;;;;;;;;;;5022494;28;20033;-59
2021/09/15 11:10:03;;;;;;;40.17;19.67;;;;;;;;;;5041137;28;20065;-59
2021/09/15 11:12:45;;;;;;;32.22;17.23;;;;;;;;;;5036313;28;20041;-59
2021/09/15 11:15:25;;;;;;;33.40;18.42;;;;;;;;;;5038483;28;20048;-59
2021/09/15 11:17:52;;;;;;;34.00;18.88;;;;;;;;;;5036151;28;20037;-60
2021/09/15 11:20:19;;;;;;;31.98;18.25;;;;;;;;;;5040372;28;20045;-60
2021/09/15 11:22:46;;;;;;;38.42;18.83;;;;;;;;;;5053900;28;20048;-60
2021/09/15 11:25:16;;;;;;;34.03;18.52;;;;;;;;;;5031215;28;20046;-60
2021/09/15 11:27:43;;;;;;;32.08;18.00;;;;;;;;;;5025355;28;20066;-60
2021/09/15 11:30:10;;;;;;;28.77;16.60;;;;;;;;;;5019425;28;20033;-59
2021/09/15 11:32:38;;;;;;;35.10;19.13;;;;;;;;;;5020498;28;20068;-59
2021/09/15 11:35:06;;;;;;;37.17;19.40;;;;;;;;;;5016743;28;20034;-59
2021/09/15 11:37:33;;;;;;;36.70;20.57;;;;;;;;;;5022682;28;20038;-59
2021/09/15 11:40:00;;;;;;;32.13;19.10;;;;;;;;;;5000616;28;20291;-59
2021/09/15 11:42:28;;;;;;;32.53;18.75;;;;;;;;;;5003100;28;20077;-59
2021/09/15 11:44:55;;;;;;;34.90;18.58;;;;;;;;;;5011858;28;20042;-59
2021/09/15 11:47:26;;;;;;;28.83;15.93;;;;;;;;;;5022104;28;20045;-59
2021/09/15 11:49:55;;;;;;;23.33;12.30;;;;;;;;;;5032963;28;20045;-59
2021/09/15 11:52:21;;;;;;;;;;;;;;;;;;5043951;28;20042;-55
2021/09/15 11:54:52;;;;;;;17.75;9.38;;;;;;;;;;5028227;28;19988;-58
2021/09/15 11:57:19;;;;;;;13.30;7.88;;;;;;;;;;5006657;28;20141;-58
2021/09/15 11:59:45;;;;;;;14.63;7.68;;;;;;;;;;5025806;28;20041;-58
2021/09/15 12:02:14;;;;;;;14.13;7.13;;;;;;;;;;5046600;28;20038;-57
2021/09/15 12:04:41;;;;;;;;;;;;;;;;;;5035621;28;20041;-57
2021/09/15 12:07:10;;;;;;;10.55;5.90;;;;;;;;;;5023890;28;19961;-57
2021/09/15 12:09:38;;;;;;;10.93;5.78;;;;;;;;;;5029433;28;20041;-57
2021/09/15 12:12:09;;;;;;;10.80;5.30;;;;;;;;;;5038659;28;20123;-58
2021/09/15 12:14:35;;;;;;;10.05;5.18;;;;;;;;;;5019333;28;20321;-58
2021/09/15 12:17:04;;;;;;;11.13;4.90;;;;;;;;;;5023139;28;20052;-57
2021/09/15 12:19:30;;;;;;;;;;;;;;;;;;5023843;28;20030;-58
2021/09/15 12:21:56;;;;;;;8.57;4.78;;;;;;;;;;5017741;28;20186;-57
2021/09/15 12:24:26;;;;;;;9.60;5.45;;;;;;;;;;5023841;28;20157;-58
2021/09/15 12:26:52;;;;;;;9.02;5.50;;;;;;;;;;5031431;28;20059;-57
2021/09/15 12:29:20;;;;;;;10.82;5.15;;;;;;;;;;5043571;28;20048;-58
2021/09/15 12:31:48;;;;;;;12.82;6.30;;;;;;;;;;5038985;28;20040;-58
2021/09/15 12:34:16;;;;;;;13.88;4.80;;;;;;;;;;5022296;28;20030;-58
2021/09/15 12:36:42;;;;;;;11.02;4.07;;;;;;;;;;5020582;28;20131;-58
2021/09/15 12:39:12;;;;;;;8.32;3.33;;;;;;;;;;5024908;28;20319;-58
2021/09/15 12:41:51;;;;;;;6.47;2.70;;;;;;;;;;5018004;28;20065;-58
2021/09/15 12:44:18;;;;;;;4.03;2.00;;;;;;;;;;5039185;28;20041;-58
2021/09/15 12:46:48;;;;;;;4.18;1.67;;;;;;;;;;5035593;28;20053;-58
2021/09/15 12:49:26;;;;;;;3.67;1.50;;;;;;;;;;5023368;28;20038;-58
2021/09/15 12:51:59;;;;;;;5.00;1.80;;;;;;;;;;5019120;28;20042;-57
2021/09/15 12:54:27;;;;;;;4.28;1.90;;;;;;;;;;5039704;28;20057;-58
2021/09/15 12:57:11;;;;;;;8.07;1.90;;;;;;;;;;5017873;28;20046;-58
2021/09/15 12:59:38;;;;;;;3.92;2.05;;;;;;;;;;5024278;28;20127;-58
2021/09/15 13:02:17;;;;;;;7.85;2.00;;;;;;;;;;5035667;28;20042;-57
2021/09/15 13:04:43;;;;;;;6.65;2.20;;;;;;;;;;5024192;28;20038;-58
2021/09/15 13:07:10;;;;;;;9.50;2.92;;;;;;;;;;5020350;28;20045;-57
2021/09/15 13:09:36;;;;;;;8.50;3.45;;;;;;;;;;5022698;28;20046;-58
2021/09/15 13:12:04;;;;;;;8.05;3.50;;;;;;;;;;5023304;28;20110;-58
2021/09/15 13:14:31;;;;;;;9.90;3.40;;;;;;;;;;5041232;28;20045;-57
2021/09/15 13:16:57;;;;;;;6.47;3.20;;;;;;;;;;5054617;28;20045;-58
2021/09/15 13:19:24;;;;;;;9.32;3.55;;;;;;;;;;5023570;28;20045;-57
2021/09/15 13:21:50;;;;;;;9.02;3.60;;;;;;;;;;5024422;28;20049;-58
2021/09/15 13:24:18;;;;;;;9.98;3.20;;;;;;;;;;5021090;28;20046;-58
2021/09/15 13:26:44;;;;;;;8.57;3.33;;;;;;;;;;5033405;28;20037;-58
2021/09/15 13:29:12;;;;;;;5.35;2.78;;;;;;;;;;5041022;28;20048;-58
2021/09/15 13:31:39;;;;;;;5.60;3.10;;;;;;;;;;5024555;28;20101;-58
2021/09/15 13:34:05;;;;;;;6.50;2.72;;;;;;;;;;5038808;28;20049;-57
2021/09/15 13:36:32;;;;;;;5.97;2.47;;;;;;;;;;5044335;28;20122;-58
2021/09/15 13:38:58;;;;;;;8.32;3.03;;;;;;;;;;5022877;28;20041;-58
2021/09/15 13:41:24;;;;;;;5.93;2.15;;;;;;;;;;5045376;28;20044;-59
2021/09/15 13:43:52;;;;;;;5.75;2.28;;;;;;;;;;5042145;28;20037;-58
2021/09/15 13:46:20;;;;;;;8.25;2.22;;;;;;;;;;5042431;28;20037;-58
2021/09/15 13:48:46;;;;;;;5.00;1.98;;;;;;;;;;5038442;28;20042;-58
2021/09/15 13:51:13;;;;;;;6.40;1.75;;;;;;;;;;5042851;28;20052;-57
2021/09/15 13:53:40;;;;;;;7.20;1.80;;;;;;;;;;5037240;28;20056;-58
2021/09/15 13:56:09;;;;;;;9.48;2.42;;;;;;;;;;5023909;28;20029;-57
2021/09/15 13:58:36;;;;;;;5.50;1.95;;;;;;;;;;5040914;28;20045;-57
2021/09/15 14:01:02;;;;;;;7.63;2.20;;;;;;;;;;5042923;28;20037;-58
2021/09/15 14:03:30;;;;;;;8.60;2.00;;;;;;;;;;5040747;28;20041;-57
2021/09/15 14:05:57;;;;;;;4.93;1.83;;;;;;;;;;5036568;28;20040;-57
2021/09/15 14:08:26;;;;;;;8.23;2.15;;;;;;;;;;5024036;28;20037;-57
2021/09/15 14:10:53;;;;;;;3.40;1.60;;;;;;;;;;5054536;28;20081;-57
2021/09/15 14:13:19;;;;;;;7.10;1.90;;;;;;;;;;5041711;28;20057;-57
2021/09/15 14:15:47;;;;;;;6.57;1.98;;;;;;;;;;5038872;28;20049;-57
2021/09/15 14:18:16;;;;;;;8.07;1.95;;;;;;;;;;5044324;28;20048;-57
2021/09/15 14:20:44;;;;;;;7.82;1.70;;;;;;;;;;5037716;28;20056;-57
2021/09/15 14:23:10;;;;;;;10.25;1.83;;;;;;;;;;5042930;28;20037;-57
2021/09/15 14:25:38;;;;;;;5.65;1.75;;;;;;;;;;5044227;28;20048;-58
2021/09/15 14:28:05;;;;;;;6.97;1.65;;;;;;;;;;5081610;28;20059;-58
2021/09/15 14:30:31;;;;;;;6.45;1.67;;;;;;;;;;5058027;28;20059;-57
2021/09/15 14:32:57;;;;;;;2.92;1.20;;;;;;;;;;5061615;28;20048;-57
2021/09/15 14:35:24;;;;;;;7.07;1.88;;;;;;;;;;5042830;28;20043;-58
2021/09/15 14:37:52;;;;;;;3.70;1.25;;;;;;;;;;5043786;28;20076;-57